Time;durP1;ratioP1;P1;durP2;ratioP2;P2;SDS_P1;SDS_P2;PMS_P1;PMS_P2;Temp;Humidity;BMP_temperature;BMP_pressure;BME280_temperature;BME280_humidity;BME280_pressure;Samples;Min_cycle;Max_cycle;Signal;HPM_P1;HPM_P2
2021/11/06 00:00:43;;;;;;;24.13;3.30;;;;;;;10.14;92.25;100896.50;4828411;29;20461;-79
2021/11/06 00:03:09;;;;;;;21.20;4.28;;;;;;;10.17;92.33;100896.09;4844021;29;20425;-79
2021/11/06 00:05:35;;;;;;;34.75;4.38;;;;;;;10.19;92.61;100894.88;4826871;29;20057;-79
2021/11/06 00:08:00;;;;;;;22.98;3.95;;;;;;;10.20;92.50;100893.88;4861412;29;20356;-80
2021/11/06 00:10:26;;;;;;;26.40;4.10;;;;;;;10.22;92.85;100894.47;4880511;29;20029;-79
2021/11/06 00:12:52;;;;;;;30.75;3.92;;;;;;;10.27;93.69;100881.31;4838934;29;20102;-78
2021/11/06 00:15:18;;;;;;;31.42;4.63;;;;;;;10.30;93.57;100886.31;4826864;29;20460;-78
2021/11/06 00:17:44;;;;;;;22.42;3.70;;;;;;;10.35;93.76;100883.84;4842454;29;20368;-79
2021/11/06 00:20:12;;;;;;;29.60;4.22;;;;;;;10.36;92.56;100898.13;4842207;29;20072;-78
2021/11/06 00:22:38;;;;;;;31.45;5.05;;;;;;;10.39;93.40;100860.09;4843450;29;20179;-79
2021/11/06 00:25:05;;;;;;;27.73;4.68;;;;;;;10.43;92.99;100893.66;4827166;29;20125;-79
2021/11/06 00:27:32;;;;;;;28.13;4.45;;;;;;;10.15;92.22;100845.19;4843895;29;20053;-79
2021/11/06 00:29:58;;;;;;;32.05;4.28;;;;;;;10.47;92.69;100894.94;4844454;29;20354;-79
2021/11/06 00:32:23;;;;;;;31.00;4.70;;;;;;;10.40;93.22;100890.50;4814541;29;20029;-79
2021/11/06 00:34:49;;;;;;;20.55;4.07;;;;;;;10.47;93.96;100886.84;4848732;29;20137;-79
2021/11/06 00:37:14;;;;;;;24.40;4.30;;;;;;;10.49;93.57;100875.88;4843755;29;20038;-78
2021/11/06 00:39:40;;;;;;;26.40;4.30;;;;;;;10.50;93.08;100889.16;4826211;29;20030;-79
2021/11/06 00:42:07;;;;;;;26.85;4.70;;;;;;;10.55;93.45;100883.16;4842844;29;20038;-79
2021/11/06 00:44:33;;;;;;;34.65;5.32;;;;;;;10.55;93.87;100883.16;4845677;29;20369;-79
2021/11/06 00:47:00;;;;;;;36.40;5.00;;;;;;;10.57;94.65;100883.81;4861289;29;20040;-79
2021/11/06 00:49:25;;;;;;;26.33;3.85;;;;;;;10.42;94.73;100870.44;4860578;29;20037;-79
2021/11/06 00:51:51;;;;;;;31.10;4.95;;;;;;;10.50;94.62;100883.78;4858276;29;20361;-79
2021/11/06 00:54:17;;;;;;;26.20;4.45;;;;;;;10.51;94.78;100881.91;4861238;29;20120;-79
2021/11/06 00:56:43;;;;;;;34.35;6.07;;;;;;;10.52;94.67;100884.38;4875562;29;20120;-78
2021/11/06 00:59:08;;;;;;;27.92;4.47;;;;;;;10.57;95.03;100881.94;4845762;29;20452;-79
2021/11/06 01:01:34;;;;;;;28.05;4.25;;;;;;;10.54;95.49;100852.75;4837880;29;20041;-79
2021/11/06 01:04:00;;;;;;;41.83;6.30;;;;;;;10.65;95.57;100877.44;4842188;29;20475;-79
2021/11/06 01:06:27;;;;;;;35.50;6.22;;;;;;;10.60;95.87;100878.03;4842492;29;20117;-78
2021/11/06 01:08:52;;;;;;;33.38;5.00;;;;;;;10.63;95.61;100885.72;4843537;29;20030;-79
2021/11/06 01:11:19;;;;;;;35.60;5.05;;;;;;;10.58;95.80;100874.72;4839516;29;20376;-79
2021/11/06 01:13:44;;;;;;;34.60;6.00;;;;;;;10.62;96.28;100870.59;4845679;29;20042;-79
2021/11/06 01:16:10;;;;;;;33.67;5.53;;;;;;;10.45;96.09;100835.09;4848408;29;20118;-79
2021/11/06 01:18:36;;;;;;;26.20;4.95;;;;;;;10.60;95.76;100875.34;4865870;29;20043;-79
2021/11/06 01:21:02;;;;;;;25.90;4.38;;;;;;;10.46;96.26;100835.91;4847198;29;20359;-79
2021/11/06 01:23:27;;;;;;;39.13;5.47;;;;;;;10.57;96.37;100863.13;4833818;29;20038;-80
2021/11/06 01:25:53;;;;;;;32.00;4.57;;;;;;;10.59;96.23;100868.28;4848578;29;20389;-79
2021/11/06 01:28:18;;;;;;;29.45;4.43;;;;;;;10.60;96.37;100858.38;4848481;29;20109;-79
2021/11/06 01:30:43;;;;;;;27.77;4.00;;;;;;;10.61;96.47;100855.47;4848671;29;20201;-79
2021/11/06 01:33:09;;;;;;;26.33;4.07;;;;;;;10.63;96.72;100871.41;4860934;29;20034;-78
2021/11/06 01:35:36;;;;;;;24.98;3.97;;;;;;;10.64;96.91;100863.16;4860981;29;20056;-79
2021/11/06 01:38:01;;;;;;;32.90;4.70;;;;;;;10.63;97.16;100853.44;4846443;29;20037;-79
2021/11/06 01:40:28;;;;;;;24.77;5.05;;;;;;;10.61;97.52;100838.50;4829797;29;20086;-78
2021/11/06 01:42:53;;;;;;;28.45;4.40;;;;;;;10.66;97.44;100844.09;4858099;29;20468;-79
2021/11/06 01:45:22;;;;;;;30.25;4.50;;;;;;;10.64;97.86;100844.31;4864622;29;20033;-79
2021/11/06 01:47:48;;;;;;;34.17;5.88;;;;;;;10.60;98.29;100835.00;4863985;29;20033;-80
2021/11/06 01:50:15;;;;;;;26.05;4.50;;;;;;;10.57;99.08;100835.38;4871868;29;20041;-79
2021/11/06 01:52:40;;;;;;;26.98;3.92;;;;;;;10.57;99.10;100836.22;4852960;29;20472;-79
2021/11/06 01:55:07;;;;;;;21.08;3.40;;;;;;;10.61;99.19;100828.56;4846634;29;20029;-79
2021/11/06 01:57:34;;;;;;;16.15;3.42;;;;;;;10.61;100.00;100830.44;4845753;29;20050;-79
2021/11/06 02:00:00;;;;;;;22.30;3.30;;;;;;;10.60;99.84;100828.78;4846883;29;20032;-79
2021/11/06 02:02:26;;;;;;;25.13;4.50;;;;;;;10.57;100.00;100816.53;4845436;29;20069;-78
2021/11/06 02:04:52;;;;;;;19.55;3.60;;;;;;;10.58;100.00;100824.41;4846335;29;20108;-78
2021/11/06 02:07:18;;;;;;;18.95;3.22;;;;;;;10.60;100.00;100832.28;4845621;29;20458;-78
2021/11/06 02:09:44;;;;;;;22.33;3.70;;;;;;;10.60;100.00;100836.84;4846258;29;20030;-78
2021/11/06 02:12:09;;;;;;;28.35;4.00;;;;;;;10.66;100.00;100844.97;4857119;29;20033;-78
2021/11/06 02:14:36;;;;;;;17.08;3.70;;;;;;;10.67;100.00;100818.88;4863815;29;20033;-79
2021/11/06 02:17:02;;;;;;;24.77;3.67;;;;;;;10.65;100.00;100835.22;4853391;29;20034;-78
2021/11/06 02:19:29;;;;;;;21.20;3.30;;;;;;;10.63;100.00;100839.97;4845557;29;20030;-78
2021/11/06 02:21:57;;;;;;;22.17;3.92;;;;;;;10.66;100.00;100836.88;4828547;29;20134;-79
2021/11/06 02:24:23;;;;;;;20.02;3.42;;;;;;;10.64;100.00;100816.59;4859674;29;20453;-79
2021/11/06 02:26:48;;;;;;;23.48;3.67;;;;;;;10.69;100.00;100817.63;4863308;29;20030;-78
2021/11/06 02:29:14;;;;;;;27.55;4.40;;;;;;;10.69;100.00;100827.56;4862052;29;20099;-78
2021/11/06 02:31:40;;;;;;;24.92;3.88;;;;;;;10.68;100.00;100823.22;4845004;29;20030;-78
2021/11/06 02:34:06;;;;;;;28.08;4.53;;;;;;;10.67;100.00;100830.47;4845619;29;20118;-79
2021/11/06 02:36:32;;;;;;;23.75;3.92;;;;;;;10.53;100.00;100815.28;4831272;29;20106;-79
2021/11/06 02:38:58;;;;;;;22.00;4.18;;;;;;;10.66;100.00;100823.44;4851444;29;20121;-79
2021/11/06 02:41:24;;;;;;;31.48;4.22;;;;;;;10.70;100.00;100822.00;4829045;29;20037;-79
2021/11/06 02:43:49;;;;;;;28.50;4.57;;;;;;;10.65;100.00;100812.84;4828397;29;20036;-79
2021/11/06 02:46:15;;;;;;;23.08;3.90;;;;;;;10.41;100.00;100763.88;4829217;29;20137;-78
2021/11/06 02:48:40;;;;;;;27.02;3.78;;;;;;;10.86;100.00;100825.38;4843901;29;20030;-79
2021/11/06 02:51:06;;;;;;;28.45;4.15;;;;;;;10.89;100.00;100819.56;4846141;29;20070;-79
2021/11/06 02:53:32;;;;;;;29.52;4.55;;;;;;;10.88;100.00;100824.13;4845195;29;20079;-79
2021/11/06 02:55:57;;;;;;;30.40;4.70;;;;;;;10.80;100.00;100808.19;4845599;29;20109;-79
2021/11/06 02:58:22;;;;;;;26.38;3.70;;;;;;;10.58;100.00;100780.53;4828358;29;20050;-78
2021/11/06 03:00:48;;;;;;;22.15;3.83;;;;;;;10.92;100.00;100822.69;4829288;29;20061;-79
2021/11/06 03:03:13;;;;;;;35.28;4.55;;;;;;;10.92;100.00;100832.63;4859840;29;20140;-79
2021/11/06 03:05:39;;;;;;;27.80;4.15;;;;;;;10.92;100.00;100829.94;4834259;29;20065;-78
2021/11/06 03:08:05;;;;;;;24.05;4.32;;;;;;;10.84;100.00;100805.91;4844226;29;20109;-78
2021/11/06 03:10:30;;;;;;;31.55;4.82;;;;;;;10.92;100.00;100809.25;4845095;29;20038;-78
2021/11/06 03:12:56;;;;;;;30.13;4.63;;;;;;;10.94;100.00;100828.72;4843969;29;20026;-78
2021/11/06 03:15:22;;;;;;;27.02;3.53;;;;;;;10.92;100.00;100830.78;4845258;29;20356;-78
2021/11/06 03:17:48;;;;;;;19.77;4.43;;;;;;;10.89;100.00;100828.47;4849847;29;20037;-78
2021/11/06 03:20:15;;;;;;;26.23;3.78;;;;;;;10.92;100.00;100827.25;4846790;29;20033;-78
2021/11/06 03:22:41;;;;;;;15.55;2.33;;;;;;;10.95;100.00;100833.06;4857030;29;20065;-79
2021/11/06 03:25:09;;;;;;;21.63;2.92;;;;;;;10.86;100.00;100815.44;4849710;29;20357;-78
2021/11/06 03:27:34;;;;;;;29.42;5.20;;;;;;;10.95;100.00;100813.41;4843892;29;20033;-78
2021/11/06 03:30:00;;;;;;;28.23;5.20;;;;;;;11.04;100.00;100836.44;4842720;29;20434;-78
2021/11/06 03:32:26;;;;;;;34.30;5.43;;;;;;;11.01;100.00;100828.75;4844495;29;20038;-78
2021/11/06 03:34:52;;;;;;;33.08;5.05;;;;;;;11.05;100.00;100836.22;4826883;29;20360;-78
2021/11/06 03:37:17;;;;;;;22.98;3.80;;;;;;;11.07;100.00;100838.72;4858655;29;20072;-78
2021/11/06 03:39:43;;;;;;;35.80;5.60;;;;;;;11.04;100.00;100833.75;4835368;29;20092;-78
2021/11/06 03:42:09;;;;;;;23.90;4.20;;;;;;;10.99;100.00;100825.41;4845560;29;20029;-78
2021/11/06 03:44:36;;;;;;;31.52;5.05;;;;;;;10.99;100.00;100830.81;4837152;29;20049;-78
2021/11/06 03:47:03;;;;;;;31.02;4.72;;;;;;;11.00;100.00;100827.09;4825621;29;20465;-78
2021/11/06 03:49:28;;;;;;;29.70;5.28;;;;;;;10.97;100.00;100835.56;4841352;29;20033;-78
2021/11/06 03:51:54;;;;;;;36.55;5.40;;;;;;;10.98;100.00;100831.84;4819391;29;20023;-78
2021/11/06 03:54:19;;;;;;;35.00;6.35;;;;;;;11.01;100.00;100839.53;4845671;29;20030;-79
2021/11/06 03:56:45;;;;;;;30.02;5.18;;;;;;;10.76;100.00;100796.13;4816578;29;20041;-78
2021/11/06 03:59:10;;;;;;;29.75;4.40;;;;;;;11.07;100.00;100816.34;4844197;29;20038;-79
2021/11/06 04:01:36;;;;;;;32.45;4.57;;;;;;;11.04;100.00;100823.78;4827495;29;20030;-79
2021/11/06 04:04:02;;;;;;;29.92;5.10;;;;;;;11.07;100.00;100843.28;4845355;29;20030;-78
2021/11/06 04:06:29;;;;;;;19.90;4.28;;;;;;;11.06;100.00;100839.75;4848267;29;20061;-78
2021/11/06 04:08:54;;;;;;;20.20;3.95;;;;;;;11.05;100.00;100820.06;4861950;29;20061;-78
2021/11/06 04:11:21;;;;;;;26.92;5.07;;;;;;;11.04;100.00;100828.34;4840349;29;20524;-78
2021/11/06 04:13:47;;;;;;;27.90;4.28;;;;;;;11.02;99.83;100843.88;4843647;29;20026;-78
2021/11/06 04:16:13;;;;;;;28.65;4.20;;;;;;;11.05;99.64;100833.53;4842672;29;20045;-78
2021/11/06 04:18:39;;;;;;;29.98;4.43;;;;;;;10.92;100.00;100808.41;4842234;29;20101;-78
2021/11/06 04:21:04;;;;;;;28.15;4.82;;;;;;;11.05;100.00;100827.31;4863687;29;20109;-78
2021/11/06 04:23:29;;;;;;;26.27;4.05;;;;;;;10.97;100.00;100817.56;4859966;29;20111;-78
2021/11/06 04:25:56;;;;;;;21.85;3.63;;;;;;;11.07;100.00;100832.50;4861618;29;20124;-79
2021/11/06 04:28:21;;;;;;;31.05;5.30;;;;;;;11.01;99.91;100817.97;4845646;29;20372;-78
2021/11/06 04:30:47;;;;;;;36.30;5.18;;;;;;;11.10;99.88;100838.31;4858679;29;20025;-78
2021/11/06 04:33:14;;;;;;;36.92;5.53;;;;;;;11.06;99.87;100839.75;4861049;29;20040;-78
2021/11/06 04:35:39;;;;;;;29.05;4.63;;;;;;;11.10;99.92;100824.84;4830637;29;20045;-79
2021/11/06 04:38:04;;;;;;;28.85;4.78;;;;;;;11.10;99.69;100843.72;4843654;29;20139;-78
2021/11/06 04:40:30;;;;;;;32.08;5.38;;;;;;;11.11;99.88;100849.91;4842612;29;20484;-78
2021/11/06 04:42:56;;;;;;;28.05;5.18;;;;;;;10.96;100.00;100832.06;4842393;29;20115;-78
2021/11/06 04:45:21;;;;;;;26.67;4.43;;;;;;;11.07;100.00;100854.06;4842414;29;20467;-78
2021/11/06 04:47:47;;;;;;;24.23;4.20;;;;;;;10.99;100.00;100838.88;4841762;29;20099;-79
2021/11/06 04:50:12;;;;;;;28.67;4.53;;;;;;;11.09;100.00;100852.78;4826910;29;20040;-79
2021/11/06 04:52:39;;;;;;;25.45;4.57;;;;;;;11.07;100.00;100838.72;4843128;29;20033;-79
2021/11/06 04:55:07;;;;;;;30.90;5.72;;;;;;;11.05;100.00;100846.97;4842542;29;20330;-78
2021/11/06 04:57:32;;;;;;;35.53;4.85;;;;;;;11.13;100.00;100856.78;4826050;29;20100;-78
2021/11/06 04:59:58;;;;;;;30.25;5.20;;;;;;;11.09;100.00;100855.50;4826074;29;20054;-79
2021/11/06 05:02:23;;;;;;;31.13;4.80;;;;;;;11.13;100.00;100853.25;4843658;29;20038;-79
2021/11/06 05:04:49;;;;;;;33.63;4.95;;;;;;;11.10;100.00;100854.47;4841265;29;20554;-78
2021/11/06 05:07:15;;;;;;;29.52;4.70;;;;;;;11.10;100.00;100848.28;4843515;29;20090;-79
2021/11/06 05:09:43;;;;;;;38.47;5.18;;;;;;;11.10;100.00;100851.78;4848714;29;20087;-79
2021/11/06 05:12:11;;;;;;;36.10;5.85;;;;;;;11.07;100.00;100849.50;4828281;29;20073;-78
2021/11/06 05:14:36;;;;;;;31.95;5.13;;;;;;;11.12;100.00;100873.94;4842845;29;20037;-78
2021/11/06 05:17:02;;;;;;;30.60;4.68;;;;;;;11.09;100.00;100874.34;4861247;29;20416;-79
2021/11/06 05:19:28;;;;;;;30.58;4.55;;;;;;;11.12;100.00;100868.56;4857264;29;20033;-78
2021/11/06 05:21:53;;;;;;;30.02;4.30;;;;;;;11.08;100.00;100877.25;4861684;29;20112;-78
2021/11/06 05:24:19;;;;;;;34.33;5.88;;;;;;;11.04;100.00;100876.81;4860983;29;20475;-79
2021/11/06 05:26:45;;;;;;;30.98;4.95;;;;;;;11.07;100.00;100876.41;4861741;29;20030;-78
2021/11/06 05:29:11;;;;;;;28.77;3.80;;;;;;;11.11;100.00;100887.63;4827045;29;20194;-79
2021/11/06 05:31:38;;;;;;;32.95;5.30;;;;;;;11.09;100.00;100877.03;4826369;29;20524;-78
2021/11/06 05:34:05;;;;;;;26.95;4.65;;;;;;;11.09;100.00;100873.50;4826379;29;20117;-79
2021/11/06 05:36:32;;;;;;;23.23;3.78;;;;;;;11.13;100.00;100881.00;4850117;29;20045;-79
2021/11/06 05:38:58;;;;;;;26.10;3.92;;;;;;;11.14;100.00;100871.88;4843034;29;20038;-79
2021/11/06 05:41:23;;;;;;;32.55;5.40;;;;;;;11.14;100.00;100876.44;4843609;29;20505;-78
2021/11/06 05:43:49;;;;;;;34.35;5.07;;;;;;;11.15;100.00;100883.50;4841412;29;20112;-79
2021/11/06 05:46:14;;;;;;;33.28;4.45;;;;;;;11.13;100.00;100881.00;4843806;29;20141;-79
2021/11/06 05:48:40;;;;;;;26.92;4.55;;;;;;;11.12;100.00;100873.13;4841154;29;20402;-78
2021/11/06 05:51:05;;;;;;;35.92;6.07;;;;;;;11.14;100.00;100877.28;4843356;29;20434;-78
2021/11/06 05:53:31;;;;;;;27.58;4.43;;;;;;;11.10;100.00;100865.25;4841476;29;20030;-79
2021/11/06 05:55:58;;;;;;;31.23;4.65;;;;;;;11.18;100.00;100883.91;4819131;29;20098;-79
2021/11/06 05:58:23;;;;;;;30.92;4.45;;;;;;;11.19;100.00;100887.44;4842965;29;20058;-78
2021/11/06 06:00:49;;;;;;;34.55;5.47;;;;;;;11.03;100.00;100864.41;4843708;29;20041;-79
2021/11/06 06:03:15;;;;;;;32.17;5.00;;;;;;;11.14;100.00;100901.50;4838324;29;20030;-79
2021/11/06 06:05:40;;;;;;;30.88;4.97;;;;;;;11.17;100.00;100894.91;4850365;29;20353;-78
2021/11/06 06:08:05;;;;;;;13.98;2.92;;;;;;;11.15;100.00;100889.69;4816074;29;20369;-78
2021/11/06 06:10:31;;;;;;;25.45;4.15;;;;;;;11.16;100.00;100890.53;4840809;29;20045;-79
2021/11/06 06:12:56;;;;;;;21.35;3.85;;;;;;;10.87;100.00;100843.19;4838788;29;20113;-78
2021/11/06 06:15:23;;;;;;;26.40;4.10;;;;;;;11.21;100.00;100893.47;4841898;29;20089;-79
2021/11/06 06:17:50;;;;;;;30.27;4.15;;;;;;;11.19;100.00;100895.50;4850364;29;20026;-78
2021/11/06 06:20:17;;;;;;;25.02;3.95;;;;;;;11.21;100.00;100899.66;4838458;29;20038;-78
2021/11/06 06:22:43;;;;;;;27.85;4.40;;;;;;;11.20;100.00;100899.88;4842032;29;20069;-78
2021/11/06 06:25:11;;;;;;;20.50;3.95;;;;;;;11.22;100.00;100909.41;4838211;29;20027;-78
2021/11/06 06:27:37;;;;;;;24.75;3.28;;;;;;;11.22;100.00;100895.94;4840420;29;20041;-78
2021/11/06 06:30:09;;;;;;;26.40;4.10;;;;;;;11.18;100.00;100910.84;4838297;29;20678;-78
2021/11/06 06:32:36;;;;;;;21.15;3.15;;;;;;;11.21;100.00;100915.00;4842489;29;20109;-78
2021/11/06 06:35:02;;;;;;;21.77;3.60;;;;;;;11.24;100.00;100909.22;4813860;29;20034;-78
2021/11/06 06:37:28;;;;;;;22.08;3.60;;;;;;;11.21;100.00;100896.97;4841928;29;20041;-79
2021/11/06 06:39:53;;;;;;;21.42;3.42;;;;;;;11.23;100.00;100908.41;4832162;29;20065;-78
2021/11/06 06:42:20;;;;;;;23.20;3.28;;;;;;;11.22;100.00;100912.09;4850097;29;20057;-78
2021/11/06 06:44:46;;;;;;;22.17;3.42;;;;;;;11.17;100.00;100897.59;4842098;29;20054;-77
2021/11/06 06:47:13;;;;;;;29.52;3.75;;;;;;;11.18;100.00;100905.47;4825518;29;20468;-78
2021/11/06 06:49:39;;;;;;;27.05;4.28;;;;;;;11.23;100.00;100903.00;4851381;29;20418;-78
2021/11/06 06:52:05;;;;;;;22.35;3.70;;;;;;;11.20;100.00;100897.19;4826918;29;20045;-78
2021/11/06 06:54:30;;;;;;;21.67;3.80;;;;;;;11.14;100.00;100904.22;4839567;29;20480;-77
2021/11/06 06:56:56;;;;;;;26.30;4.38;;;;;;;11.19;100.00;100903.59;4854397;29;20136;-78
2021/11/06 06:59:21;;;;;;;29.60;4.43;;;;;;;11.14;100.00;100909.59;4845165;29;20038;-78
2021/11/06 07:01:47;;;;;;;31.48;4.05;;;;;;;11.12;100.00;100919.72;4857856;29;20040;-78
2021/11/06 07:04:13;;;;;;;25.45;3.78;;;;;;;11.13;100.00;100905.25;4854612;29;20124;-78
2021/11/06 07:06:39;;;;;;;26.20;4.10;;;;;;;11.11;100.00;100909.16;4847561;29;20025;-78
2021/11/06 07:09:05;;;;;;;18.35;3.10;;;;;;;11.00;100.00;100892.53;4858513;29;20044;-79
2021/11/06 07:11:30;;;;;;;26.08;4.22;;;;;;;11.13;100.00;100904.41;4847702;29;20139;-79
2021/11/06 07:13:58;;;;;;;28.65;4.30;;;;;;;11.15;100.00;100931.97;4827329;29;20433;-78
2021/11/06 07:16:23;;;;;;;23.15;3.80;;;;;;;11.15;100.00;100931.97;4832504;29;20045;-80
2021/11/06 07:18:49;;;;;;;31.42;4.75;;;;;;;11.15;100.00;100931.97;4851857;29;20038;-80
2021/11/06 07:21:14;;;;;;;25.13;4.38;;;;;;;11.14;100.00;100924.94;4837488;29;20113;-81
2021/11/06 07:23:40;;;;;;;16.13;2.95;;;;;;;11.16;100.00;100923.69;4870277;29;20034;-80
2021/11/06 07:26:05;;;;;;;26.15;3.92;;;;;;;11.15;100.00;100931.97;4870275;29;20045;-79
2021/11/06 07:28:31;;;;;;;32.97;4.82;;;;;;;11.24;100.00;100946.94;4852685;29;20029;-80
2021/11/06 07:30:58;;;;;;;21.27;3.95;;;;;;;11.19;100.00;100925.13;4845692;29;20049;-81
2021/11/06 07:33:24;;;;;;;22.75;3.35;;;;;;;11.25;100.00;100933.25;4858909;29;20120;-79
2021/11/06 07:35:49;;;;;;;27.63;4.28;;;;;;;11.31;100.00;100950.47;4844501;29;20038;-79
2021/11/06 07:38:15;;;;;;;23.08;3.70;;;;;;;11.31;100.00;100944.28;4843647;29;20107;-78
2021/11/06 07:40:41;;;;;;;23.33;3.85;;;;;;;11.21;100.00;100945.47;4850462;29;20095;-78
2021/11/06 07:43:07;;;;;;;27.10;4.80;;;;;;;11.09;100.00;100912.03;4844514;29;20445;-79
2021/11/06 07:45:35;;;;;;;27.13;4.03;;;;;;;11.32;100.00;100959.41;4838283;29;20129;-78
2021/11/06 07:48:01;;;;;;;22.10;4.32;;;;;;;11.25;100.00;100952.09;4831191;29;20034;-80
2021/11/06 07:50:28;;;;;;;23.10;4.03;;;;;;;11.31;100.00;100965.81;4841695;29;20037;-79
2021/11/06 07:52:55;;;;;;;26.00;4.38;;;;;;;11.28;100.00;100954.41;4835961;29;20046;-78
2021/11/06 07:55:20;;;;;;;21.98;3.25;;;;;;;11.35;100.00;100953.59;4850206;29;20026;-80
2021/11/06 07:57:46;;;;;;;24.40;3.45;;;;;;;11.35;100.00;100959.81;4821326;29;20066;-78
2021/11/06 08:00:14;;;;;;;20.58;3.65;;;;;;;11.33;100.00;100945.75;4846852;29;20030;-78
2021/11/06 08:02:41;;;;;;;23.90;3.75;;;;;;;11.35;100.00;100961.69;4844225;29;20069;-78
2021/11/06 08:05:09;;;;;;;25.83;4.18;;;;;;;11.23;100.00;100956.06;4833344;29;20106;-78
2021/11/06 08:07:35;;;;;;;29.15;5.22;;;;;;;11.40;100.00;100975.41;4863032;29;20102;-79
2021/11/06 08:10:01;;;;;;;24.73;4.25;;;;;;;11.39;100.00;100958.41;4839702;29;20087;-78
2021/11/06 08:12:27;;;;;;;21.60;3.42;;;;;;;11.28;100.00;100948.19;4843631;29;20117;-79
2021/11/06 08:14:53;;;;;;;17.10;3.38;;;;;;;11.32;100.00;100971.00;4841535;29;20350;-79
2021/11/06 08:17:18;;;;;;;19.77;3.33;;;;;;;11.37;100.00;100975.81;4825528;29;20038;-78
2021/11/06 08:19:44;;;;;;;19.95;3.63;;;;;;;11.35;100.00;100977.84;4828272;29;20133;-78
2021/11/06 08:22:10;;;;;;;21.90;4.07;;;;;;;11.39;100.00;100968.34;4843221;29;20369;-79
2021/11/06 08:24:37;;;;;;;22.17;3.60;;;;;;;11.35;100.00;100981.38;4836582;29;20453;-78
2021/11/06 08:27:03;;;;;;;22.48;3.25;;;;;;;11.35;100.00;100973.28;4862638;29;20037;-79
2021/11/06 08:29:29;;;;;;;20.30;3.50;;;;;;;11.34;100.00;100978.91;4857272;29;20186;-79
2021/11/06 08:31:58;;;;;;;24.83;3.80;;;;;;;11.32;100.00;100975.56;4826515;29;20408;-79
2021/11/06 08:34:25;;;;;;;19.98;3.17;;;;;;;11.28;100.00;100959.78;4843237;29;20325;-78
2021/11/06 08:36:51;;;;;;;23.08;3.53;;;;;;;11.38;100.00;100974.75;4810531;29;20429;-79
2021/11/06 08:39:19;;;;;;;22.45;3.67;;;;;;;11.43;100.00;100989.31;4849702;29;20038;-80
2021/11/06 08:41:44;;;;;;;25.77;3.92;;;;;;;11.47;100.00;100985.16;4853395;29;20030;-80
2021/11/06 08:44:10;;;;;;;26.55;4.32;;;;;;;11.49;100.00;100995.75;4848819;29;20502;-79
2021/11/06 08:46:35;;;;;;;16.70;2.90;;;;;;;11.50;100.00;100992.03;4830982;29;20405;-79
2021/11/06 08:49:01;;;;;;;19.67;2.67;;;;;;;11.53;99.44;100986.25;4829289;29;20029;-80
2021/11/06 08:51:27;;;;;;;22.42;4.18;;;;;;;11.52;98.93;100981.84;4828021;29;20041;-79
2021/11/06 08:53:53;;;;;;;22.50;3.63;;;;;;;11.45;99.64;100991.78;4845960;29;20086;-79
2021/11/06 08:56:19;;;;;;;22.80;4.05;;;;;;;11.46;99.81;100998.84;4861148;29;20128;-78
2021/11/06 08:58:44;;;;;;;22.30;3.50;;;;;;;11.41;99.35;100991.34;4826417;29;20108;-79
2021/11/06 09:01:11;;;;;;;23.98;3.70;;;;;;;11.41;98.75;100985.13;4855895;29;20037;-79
2021/11/06 09:03:37;;;;;;;23.75;4.00;;;;;;;11.47;99.29;101000.50;4849302;29;20521;-79
2021/11/06 09:06:04;;;;;;;17.50;2.92;;;;;;;11.52;99.43;101003.41;4841830;29;20040;-80
2021/11/06 09:08:32;;;;;;;24.85;3.53;;;;;;;11.55;98.95;100999.50;4837835;29;20410;-79
2021/11/06 09:11:02;;;;;;;23.17;3.40;;;;;;;11.37;99.10;100963.16;4843210;29;20034;-80
2021/11/06 09:13:28;;;;;;;23.00;3.45;;;;;;;11.56;98.91;101006.56;4833595;29;20034;-80
2021/11/06 09:15:54;;;;;;;21.15;2.55;;;;;;;11.58;98.96;101008.00;4857617;29;20032;-80
2021/11/06 09:18:19;;;;;;;18.48;3.33;;;;;;;11.57;98.54;101006.34;4860038;29;20021;-79
2021/11/06 09:20:45;;;;;;;16.63;2.85;;;;;;;11.54;98.50;101014.84;4862862;29;20069;-80
2021/11/06 09:23:10;;;;;;;23.45;3.70;;;;;;;11.52;98.71;101003.41;4859835;29;20429;-80
2021/11/06 09:25:36;;;;;;;29.65;4.63;;;;;;;11.54;99.53;101014.84;4863015;29;20025;-79
2021/11/06 09:28:02;;;;;;;33.53;4.40;;;;;;;11.52;99.75;100998.03;4840890;29;20046;-79
2021/11/06 09:30:28;;;;;;;21.88;4.05;;;;;;;11.47;100.00;101008.59;4827684;29;20038;-79
2021/11/06 09:32:54;;;;;;;24.35;3.40;;;;;;;11.51;99.90;101018.75;4825627;29;20472;-80
2021/11/06 09:35:19;;;;;;;20.65;3.30;;;;;;;11.57;99.09;101006.34;4844040;29;20057;-80
2021/11/06 09:37:44;;;;;;;20.77;3.72;;;;;;;11.31;99.03;100977.44;4831994;29;20043;-80
2021/11/06 09:40:11;;;;;;;26.52;3.63;;;;;;;11.65;99.14;101021.53;4866750;29;20448;-79
2021/11/06 09:42:39;;;;;;;17.70;3.33;;;;;;;11.66;98.75;101015.94;4866968;29;20051;-79
2021/11/06 09:45:12;;;;;;;19.48;3.10;;;;;;;11.66;98.79;101024.03;4858926;29;20424;-79
2021/11/06 09:47:42;;;;;;;20.83;3.63;;;;;;;11.64;98.39;101026.09;4874028;29;20036;-80
2021/11/06 09:50:08;;;;;;;20.67;3.58;;;;;;;11.65;97.81;101026.91;4839895;29;20042;-80
2021/11/06 09:52:33;;;;;;;17.02;2.67;;;;;;;11.56;97.22;101020.88;4835059;29;20031;-79
2021/11/06 09:54:59;;;;;;;17.35;2.50;;;;;;;11.60;97.04;101035.59;4858775;29;20034;-78
2021/11/06 09:57:25;;;;;;;14.38;2.58;;;;;;;11.67;96.81;101023.00;4852207;29;20371;-79
2021/11/06 09:59:50;;;;;;;22.85;3.78;;;;;;;11.73;96.84;101030.28;4848448;29;20034;-79
2021/11/06 10:02:16;;;;;;;19.45;3.45;;;;;;;11.75;96.73;101028.22;4829523;29;20488;-79
2021/11/06 10:04:42;;;;;;;16.10;2.83;;;;;;;11.74;97.20;101033.78;4847854;29;20053;-79
2021/11/06 10:07:22;;;;;;;18.83;3.28;;;;;;;11.73;97.04;101032.97;4821558;29;20430;-80
2021/11/06 10:10:08;;;;;;;16.58;2.88;;;;;;;11.67;97.29;101023.00;4848557;29;20108;-79
2021/11/06 10:12:47;;;;;;;21.17;3.33;;;;;;;11.63;97.66;101021.72;4847092;29;20521;-79
2021/11/06 10:15:14;;;;;;;20.98;3.55;;;;;;;11.70;98.13;101029.84;4846449;29;20022;-79
2021/11/06 10:17:42;;;;;;;24.27;3.63;;;;;;;11.71;98.24;101032.31;4837039;29;20418;-80
2021/11/06 10:20:28;;;;;;;20.80;3.00;;;;;;;11.70;97.79;101029.84;4834714;29;20117;-80
2021/11/06 10:22:55;;;;;;;20.75;2.75;;;;;;;11.73;98.03;101026.75;4871665;29;20021;-79
2021/11/06 10:25:22;;;;;;;25.70;2.90;;;;;;;11.76;97.67;101034.44;4853915;29;20057;-79
2021/11/06 10:27:58;;;;;;;8.80;2.22;;;;;;;11.71;97.76;101018.84;4873327;29;20044;-79
2021/11/06 10:30:28;;;;;;;23.63;3.33;;;;;;;11.69;97.54;101026.31;4836317;29;20056;-80
2021/11/06 10:32:58;;;;;;;26.52;3.17;;;;;;;11.78;97.43;101035.06;4829687;29;20022;-80
2021/11/06 10:35:26;;;;;;;16.10;2.30;;;;;;;11.80;96.79;101030.31;4847249;29;20040;-79
2021/11/06 10:38:04;;;;;;;24.98;3.20;;;;;;;11.82;96.56;101030.94;4850377;29;20121;-80
2021/11/06 10:40:33;;;;;;;27.63;3.40;;;;;;;11.82;96.48;101028.25;4839884;29;20037;-80
2021/11/06 10:43:02;;;;;;;13.18;2.53;;;;;;;11.91;96.11;101040.53;4846695;29;20065;-79
2021/11/06 10:45:35;;;;;;;18.00;2.53;;;;;;;11.93;95.83;101024.97;4845483;29;20038;-78
2021/11/06 10:48:06;;;;;;;13.23;2.17;;;;;;;12.02;95.62;101022.09;4841983;29;20044;-79
2021/11/06 10:50:42;;;;;;;14.45;1.92;;;;;;;12.01;95.33;101017.75;4840142;29;20030;-79
2021/11/06 10:53:10;;;;;;;16.10;2.70;;;;;;;11.96;95.44;101015.66;4843559;29;20056;-78
2021/11/06 10:55:37;;;;;;;19.65;3.80;;;;;;;12.02;95.89;101020.25;4846983;29;20038;-78
2021/11/06 10:58:24;;;;;;;18.13;2.67;;;;;;;12.09;96.00;100999.53;4811771;29;20049;-78
2021/11/06 11:00:52;;;;;;;18.27;2.55;;;;;;;12.16;95.29;101013.03;4827046;29;20050;-79
2021/11/06 11:03:43;;;;;;;15.70;2.65;;;;;;;12.03;95.26;100992.25;4838340;29;20372;-78
2021/11/06 11:06:13;;;;;;;13.73;2.35;;;;;;;12.09;94.81;100993.28;4842235;29;20034;-78
2021/11/06 11:08:55;;;;;;;22.45;3.97;;;;;;;12.14;95.16;101006.97;4832889;29;20022;-79